AirNav   ProFlight Series 2 Aviation Headset
 
 398 users online  

7VA1 Bristol Regional Medical Center Heliport
Bristol, Virginia, USA

GOING TO BRISTOL?


FAA INFORMATION EFFECTIVE 16 JULY 2020

Location

FAA Identifier: 7VA1
Lat/Long: 36-35-12.8200N 082-15-25.4900W
36-35.213667N 082-15.424833W
36.5868944,-82.2570806
(estimated)
Elevation: 1820 ft. / 555 m (estimated)
Variation: 04W (1985)
From city: 2 miles W of BRISTOL, VA
Time zone: UTC -4 (UTC -5 during Standard Time)
Zip code: 24201

Heliport Operations

Heliport use: Private use, MEDICAL USE.
Activation date: 11/1980
Control tower: no
ARTCC: ATLANTA CENTER
FSS: LEESBURG FLIGHT SERVICE STATION
Attendance: UNATNDD
Wind indicator: yes
Segmented circle: yes
Lights: FOR PERI LGTS PHONE 423-844-1121.

Heliport Communications

WX ASOS at TRI (10 nm SW): 118.25 (423-279-0363)
WX AWOS-3 at VJI (12 nm NE): 128.125 (276-628-2940)
WX AWOS-3PT at 0A9 (14 nm S): 135.675 (423-543-1801)

Nearby radio navigation aids

VOR radial/distance  VOR name  Freq  Var
HMVr330/10.9HOLSTON MOUNTAIN VORTAC114.6004W
GZGr213/16.7GLADE SPRING VOR/DME110.2002W

 
NDB name  Hdg/Dist  Freq  Var  ID
MOCCA064/3.529907WTR - .-.
ROGERSVILLE082/31.332907WRVN .-. ...- -.
HEMLOCK327/31.832002WBAR -... .- .-.

Heliport Services

Runway Information

Helipad H1

Dimensions: 50 x 50 ft. / 15 x 15 m
Surface: concrete
Runway edge lights: PERI
Latitude: 36-35.213667N
Longitude: 082-15.424833W
Elevation: 1820.0 ft.
Traffic pattern: leftleft

Heliport Ownership and Management from official FAA records

Ownership: Privately-owned
Owner: BRISTOL REGIONAL MEDICAL CENTER
1 MEDICAL PARK BLVD
BRISTOL, TN 37620
Phone 423-844-1121
Manager: JIM MOORE
P.O. BOX 238
KINGSPORT, TN 37660
Phone 423-224-5040

Additional Remarks

FOR CD CTC ATLANTA ARTCC AT 770-210-7692.

Instrument Procedures

There are no published instrument procedures at 7VA1.

Some nearby airports with instrument procedures:

KTRI - Tri-Cities Airport (10 nm SW)
KVJI - Virginia Highlands Airport (12 nm NE)
0A9 - Elizabethton Municipal Airport (14 nm S)
6A4 - Johnson County Airport (23 nm SE)
KLNP - Lonesome Pine Airport (27 nm NW)
 
Loc | Ops | Rwys | IFR | FBO | Links
Com | Nav | Svcs | Stats | Notes
Area around 7VA1 (Bristol Regional Medical Center Heliport)
 
Road maps at: MapQuest Bing Google
 
Aerial photo
No photo
 
Sectional chart

 
Airport distance calculator
Flying to Bristol Regional Medical Center Heliport? Find the distance to fly.

From to 7VA1

Sunrise and sunset
Times for 10-Aug-2020
 Local
(UTC-4)
 Zulu
(UTC)
Morning civil twilight06:1610:16
Sunrise06:4410:44
Sunset20:2400:24
Evening civil twilight20:5200:52

Current date and time
Zulu (UTC)  10-Aug-2020 09:11:14
Local (UTC-4)  10-Aug-2020 05:11:14
 
METAR
KTRI 
9nm SW 
100853Z 00000KT 8SM CLR 17/16 A3014 RMK AO2 SLP180 T01670161 58006
KVJI 
13nm NE 
100855Z AUTO 00000KT 10SM CLR 17/14 A3017 RMK AO2 T01680143
K0A9 
14nm S 
100855Z AUTO 00000KT 10SM CLR 18/16 A3014 RMK AO2
TAF
KTRI 
9nm SW 
100535Z 1006/1106 00000KT P6SM FEW120 FM101600 24004KT P6SM VCTS SCT045CB BKN120 PROB30 1018/1023 5SM TSRA BR OVC035CB FM110100 00000KT P6SM FEW040 BKN100
NOTAMs
Click for the latest NOTAMs
NOTAMs are issued by the DoD/FAA and will open in a separate window not controlled by AirNav.

 

 
 

Would you like to see your business listed on this page?

 If your business provides an interesting product or service to pilots, flight crews, aircraft, or users of the Bristol Regional Medical Center Heliport, you should consider listing it here.  To start the listing process, click on the button below
 
Add a business
 

Other Pages about Bristol Regional Medical Center Heliport

Update a link
 
Copyright © AirNav, LLC. All rights reserved. Privacy Policy  Contact